Accueil
METAR-TAF:

METAR-TAF

Aéroports :

Yüksekova, Turquie

latitude: 37-33-06N, longitude: 44-14-01E, altitude: 1950 m

Observation

Le bulletin a été fait il y a 51 minutes, à 14:50 UTC
Vent 5 kt de ouest/sud-ouest
Température 18°C
Humidité 34%
Pression 1019 hPa
Visibilité 10 km ou plus
Quelques nuages à une hauteur de 4000 ft

METAR: LTCW 171450Z 24005KT 9999 FEW040 18/02 Q1019

Heure: 18:41 (15:41 UTC)

Prévision

Le bulletin a été fait il y a 2 heures et 1 minutes, à 13:40 UTC
Prévision valable du 17 à 15 UTC au 17 à 24 UTC
Vent 8 kt de sud/sud-ouest
Visibilité 10 km ou plus
Quelques nuages à une hauteur de 4000 ft

TAF: LTCW 171340Z 1715/1724 21008KT 9999 FEW040

Observations et prévisions météorologiques de plus de 4000 aéroports (messages METAR et TAF).

Les stations disponibles sont représentées par des disques jaunes et rouges sur la carte.

Passer la souris dessus pour voir le nom de la station.

Cliquer dessus pour voir les observations et prévisions météorologiques.

Pour changer de carte: cliquez sur les boutons verts avec une croix noire pour zoomer, sur le bouton vert avec un tiret pour effectuer un zoom arrière, ou sur les flèches vertes pour les cartes adjacentes.


METAR-TAF: